首页
METAR-TAF:

METAR-TAF

机场 :

巴林国际机场

巴林, 巴林

纬度: 26-16N, 经度: 050-39E, 海拔: 2米

当前天气观测

该预报发布于38分钟前的23:30 UTC
风速17节,风向西北
温度 34°C
湿度 53%
气压 1000 hPa
能见度10公里或以上
1500米以下无云,无积雨云

METAR: OBBI 192330Z 31017KT CAVOK 34/23 Q1000 NOSIG

时间: 03:08 (00:08 UTC)

预报

该预报发布于1小时和8分钟前的23:00 UTC
预报有效从20日的 00点(UTC)到 21日的 06点(UTC)
风速15节,风向北转西北
能见度10公里或以上
1500米以下无云,无积雨云
成为
从 20日的 04点(UTC)到 20日的 06点(UTC)
风速15节,风向北转西北,有时为25节阵风
成为
从 20日的 15点(UTC)到 20日的 17点(UTC)
风速13节,风向北转西北

TAF: OBBI 192300Z 2000/2106 33015KT CAVOK BECMG 2004/2006 33015G25KT BECMG 2015/2017 33013KT

超过4000个机场的气象观测和天气预报(METAR&TAF报告)。

可查询的气象台以黄色和红色小点在地图上表示。

将鼠标移到小点上方,可查看气象台名称。

然后点击查看天气观测和预报。

如需切换地图:点击带黑十字的绿色按钮放大地图;点击带横线的绿色按钮缩小地图;或者点击绿色箭头查看邻近地区的地图。


METAR-TAF: